Weather observations for the past three days for
Tacoma, Tacoma Narrows Airport
Metric (Imperial)
Date Time (pdt) Wind (kph) Vis. (km) Weather Sky Cond. Temperature (ºC) Relative Humidity Wind Chill (°C) Heat Index (°C) Pressure Precipitation (cm)
Air Dwpt 6 hour altimeter (cm) sea level (mb) 1 hr 3 hr 6 hr
Max. Min.
08 04:53 SW 13 16.09 Fair CLR 9.4 6.7 12.2 9.4 83% 8 76.33 1017.6
08 03:53 SW 6 16.09 Fair CLR 9.4 6.7 83% 76.3 1017.1
08 02:53 SW 6 16.09 Fair CLR 10 6.7 80% 76.28 1016.8
08 01:53 Calm 16.09 Fair CLR 10.6 7.2 80% 76.28 1016.7
08 00:53 Calm 16.09 Fair CLR 10.6 7.2 80% 76.25 1016.6
07 23:53 W 7 16.09 Fair CLR 11.7 7.8 77% 76.28 1016.9
07 22:53 W 6 16.09 Fair CLR 12.2 8.3 17.8 12.2 77% 76.25 1016.6
07 21:53 Calm 16.09 Fair CLR 14.4 6.7 60% 76.28 1016.8
07 20:53 NE 6 16.09 Fair CLR 15 6.7 58% 76.28 1016.7
07 19:53 E 6 16.09 Fair CLR 16.1 7.2 56% 76.25 1016.5
07 18:53 Calm 16.09 Fair CLR 17.2 6.7 50% 76.28 1016.8
07 17:53 SW 7 16.09 Fair CLR 17.2 6.7 50% 76.33 1017.4
07 16:53 Vrbl 7 16.09 Fair CLR 17.2 6.7 17.2 12.8 50% 76.35 1017.8
07 15:53 Vrbl 9 16.09 Fair CLR 17.2 7.2 52% 76.38 1018.2
07 14:53 W 9 16.09 Fair CLR 16.7 6.7 52% 76.43 1018.9
07 13:53 W 7 16.09 Mostly Cloudy BKN033 15.6 6.7 56% 76.48 1019.5
07 12:53 Vrbl 6 16.09 Mostly Cloudy BKN029 14.4 6.1 58% 76.5 1020.1
07 11:53 W 9 16.09 Mostly Cloudy BKN027 13.9 6.7 62% 76.53 1020.3
07 10:53 Calm 16.09 A Few Clouds FEW024 12.8 6.7 12.8 10 67% 76.56 1020.6
07 09:53 W 9 16.09 Partly Cloudy SCT018 11.7 6.1 69% 76.56 1020.7
07 08:53 W 11 16.09 Mostly Cloudy BKN018 11.1 6.7 75% 76.56 1020.7
07 07:53 SW 6 16.09 Overcast OVC019 10 6.1 77% 76.58 1021.1
07 06:53 SW 6 16.09 Overcast OVC021 10 6.1 77% 76.56 1020.7
07 05:53 Vrbl 6 16.09 Overcast OVC020 10 6.1 77% 76.56 1020.5
07 04:53 SW 7 16.09 Overcast OVC023 10 7.2 11.1 10 83% 9 76.58 1020.8
07 03:53 S 7 16.09 Overcast OVC021 10.6 7.8 83% 76.58 1021.1
07 02:53 SW 7 16.09 Overcast FEW019 OVC026 10.6 7.8 83% 76.58 1021.0
07 01:53 SW 9 16.09 Overcast OVC032 10.6 7.8 83% 76.58 1021.1
07 00:53 SW 13 16.09 Overcast BKN025 OVC035 11.1 7.8 80% 76.61 1021.2
06 23:53 SW 13 16.09 Overcast OVC037 11.1 7.8 80% 76.58 1021.0
06 22:53 SW 9 9.66 Fog/Mist FEW017 OVC023 10.6 8.9 13.9 10.6 89% 76.61 1021.2 0.03 0.03
06 21:53 SW 9 8.05 Fog/Mist OVC021 11.1 8.9 86% 76.61 1021.2
06 20:53 SW 11 11.27 Overcast OVC023 11.7 8.9 83% 76.58 1020.9
06 19:53 SW 11 16.09 Overcast OVC028 12.2 8.3 77% 76.53 1020.4
06 18:53 SW 15 16.09 Overcast OVC022 12.8 8.3 74% 76.53 1020.4
06 17:53 Vrbl 11 16.09 Overcast OVC028 13.9 8.9 72% 76.53 1020.4
06 15:53 SW 15 16.09 Overcast BKN023 OVC028 13.3 8.3 72% 76.56 1020.7
06 14:53 SW 11 16.09 Overcast BKN023 OVC031 13.3 8.3 72% 76.58 1020.9
06 13:53 SW 17 G 30 16.09 Overcast OVC026 13.3 8.3 72% 76.58 1020.9
06 12:53 SW 13 16.09 Overcast OVC023 13.3 8.3 72% 76.56 1020.6
06 11:53 SW 11 16.09 Overcast OVC020 12.8 8.3 74% 76.53 1020.4
06 10:53 SW 11 16.09 Overcast OVC014 12.2 7.8 12.2 10.6 75% 76.53 1020.1
06 09:53 SW 13 16.09 Overcast BKN010 OVC023 11.7 8.9 83% 76.53 1020.2
06 08:53 SW 7 16.09 Overcast BKN008 OVC023 11.1 10 93% 76.5 1019.9
06 07:53 SW 7 9.66 Fog/Mist OVC006 10.6 10 96% 76.5 1019.8
06 06:53 SW 7 8.05 Fog/Mist BKN005 OVC011 10.6 10 96% 76.48 1019.5
06 05:53 SW 9 4.02 Fog/Mist OVC005 10.6 10 96% 76.45 1019.1
06 04:53 SW 7 16.09 Overcast OVC008 11.1 9.4 12.8 10.6 89% 76.43 1018.7
06 03:53 SW 6 16.09 Overcast OVC010 11.1 9.4 89% 76.38 1018.4
06 02:53 SW 6 16.09 Overcast OVC013 11.1 9.4 89% 76.35 1018.0
06 01:53 SW 7 16.09 Mostly Cloudy BKN015 11.1 9.4 89% 76.33 1017.7
06 00:53 SW 7 16.09 Fair CLR 10.6 8.9 89% 76.3 1017.4
05 23:53 W 6 16.09 Fair CLR 11.7 9.4 86% 76.28 1016.8
05 22:53 W 9 16.09 Fair CLR 12.8 9.4 16.7 12.8 80% 76.25 1016.4
05 21:53 SW 7 16.09 Fair CLR 13.3 10 81% 76.23 1016.1
05 20:53 SW 7 16.09 Fair CLR 15 10 72% 76.17 1015.6
05 19:53 SW 9 16.09 Fair CLR 15.6 11.1 75% 76.12 1014.9
05 18:53 S 11 16.09 Fair CLR 16.1 11.1 72% 76.15 1015.0
05 17:53 S 11 16.09 Fair CLR 16.1 11.1 72% 76.15 1015.1
05 16:53 SW 11 16.09 Overcast OVC021 16.7 11.1 16.7 13.3 70% 76.17 1015.5
05 15:53 Vrbl 7 16.09 Overcast OVC021 15.6 10.6 72% 76.23 1016.1
05 14:53 SW 6 16.09 Overcast OVC019 15 10.6 75% 76.25 1016.3
05 13:53 S 7 16.09 Overcast OVC017 14.4 10.6 78% 76.25 1016.7
05 12:53 W 7 16.09 Overcast OVC017 13.9 10 78% 76.25 1016.6
05 11:53 Vrbl 7 16.09 Overcast OVC015 13.9 10 78% 76.25 1016.7
05 10:53 W 6 16.09 Overcast OVC013 13.3 10 13.3 12.2 81% 76.25 1016.6
05 09:53 SW 6 16.09 Overcast OVC014 12.8 10 83% 76.23 1016.3
05 08:53 SW 6 16.09 Overcast OVC014 12.8 9.4 80% 76.2 1015.9
05 07:53 SW 6 16.09 Overcast OVC014 12.8 9.4 80% 76.17 1015.5
05 06:53 SW 7 16.09 Overcast OVC014 12.2 9.4 83% 76.15 1015.0
05 05:53 S 9 16.09 Overcast OVC012 12.2 10 87% 76.1 1014.4
Date Time (pdt) Wind (kph) Vis. (km) Weather Sky Cond. Air Dwpt Max. Min. Relative Humidity Wind Chill (°C) Heat Index (°C) altimeter (cm) sea level (mb) 1 hr 3 hr 6 hr
6 hour
Temperature (ºC) Pressure Precipitation (cm)